Terminal Aerodrome Forecast
Issued by NWS

Home | Current Version | Previous Version | Text Only | Print | Product List | Glossary On
Versions: 1 2 3 4 5 6 7 8 9 10 11 12 13 14 15 16 17 18 19 20 21 22
000
FTUS42 KMFL 222101 AAA
TAFTMB
TAF AMD
KTMB 222101Z 2221/2318 12011KT P6SM SCT026
     FM222200 10007KT P6SM SCT020
     FM230600 11007KT P6SM VCSH SCT020 BKN040
     FM231500 15009KT P6SM VCSH SCT025 BKN050=

USA.gov is the U.S. government's official web portal to all federal, state and local government web resources and services.